createdAt,value
2019-01-11T00:00:15.752Z,18.07
2019-01-11T00:02:47.694Z,18.33
2019-01-11T00:05:19.105Z,18.23
2019-01-11T00:07:49.922Z,18.50
2019-01-11T00:10:21.130Z,16.93
2019-01-11T00:12:51.957Z,18.53
2019-01-11T00:15:23.092Z,18.10
2019-01-11T00:17:54.516Z,18.07
2019-01-11T00:20:26.279Z,18.03
2019-01-11T00:22:57.758Z,18.17
2019-01-11T00:25:29.282Z,17.70
2019-01-11T00:28:00.405Z,18.10
2019-01-11T00:30:31.170Z,17.97
2019-01-11T00:33:02.098Z,17.77
2019-01-11T00:35:32.534Z,18.23
2019-01-11T00:38:03.385Z,17.40
2019-01-11T00:40:33.798Z,18.37
2019-01-11T00:43:04.513Z,18.47
2019-01-11T00:45:34.959Z,18.33
2019-01-11T00:48:05.812Z,18.17
2019-01-11T00:50:36.739Z,17.27
2019-01-11T00:53:07.967Z,17.70
2019-01-11T00:55:38.399Z,18.73
2019-01-11T00:58:10.130Z,18.20
2019-01-11T01:00:40.681Z,18.43
2019-01-11T01:03:11.653Z,18.00
2019-01-11T01:05:42.119Z,18.17
2019-01-11T01:08:12.998Z,17.90
2019-01-11T01:10:44.049Z,18.40
2019-01-11T01:13:14.966Z,17.87
2019-01-11T01:15:46.518Z,17.77
2019-01-11T01:18:17.908Z,17.80
2019-01-11T01:20:49.342Z,18.00
2019-01-11T01:23:20.194Z,18.43
2019-01-11T01:25:51.297Z,18.20
2019-01-11T01:28:23.792Z,17.93
2019-01-11T01:30:54.876Z,19.03
2019-01-11T01:33:26.305Z,18.27
2019-01-11T01:35:57.141Z,17.70
2019-01-11T01:38:29.165Z,18.43
2019-01-11T01:41:00.323Z,18.40
2019-01-11T01:43:31.577Z,18.70
2019-01-11T01:46:02.744Z,18.13
2019-01-11T01:48:33.684Z,18.73
2019-01-11T01:51:05.192Z,18.10
2019-01-11T01:53:35.939Z,18.27
2019-01-11T01:56:07.174Z,17.80
2019-01-11T01:58:37.627Z,18.73
2019-01-11T02:01:08.544Z,17.97
2019-01-11T02:03:38.983Z,18.73
2019-01-11T02:06:10.005Z,17.83
2019-01-11T02:08:40.436Z,18.37
2019-01-11T02:11:11.480Z,18.17
2019-01-11T02:13:42.420Z,18.13
2019-01-11T02:16:13.562Z,17.50
2019-01-11T02:18:45.046Z,17.97
2019-01-11T02:21:16.467Z,18.13
2019-01-11T02:23:47.562Z,18.37
2019-01-11T02:26:20.080Z,17.87
2019-01-11T02:28:51.221Z,18.20
2019-01-11T02:31:22.369Z,18.30
2019-01-11T02:33:53.847Z,18.27
2019-01-11T02:36:24.858Z,17.80
2019-01-11T02:38:55.698Z,17.30
2019-01-11T02:41:27.141Z,17.53
2019-01-11T02:43:58.374Z,18.27
2019-01-11T02:46:29.641Z,18.27
2019-01-11T02:49:01.083Z,18.47
2019-01-11T02:51:32.230Z,17.97
2019-01-11T02:54:03.713Z,17.93
2019-01-11T02:56:34.633Z,17.67
2019-01-11T02:59:05.789Z,18.23
2019-01-11T03:01:37.252Z,18.17
2019-01-11T03:04:08.782Z,17.43
2019-01-11T03:06:40.425Z,17.40
2019-01-11T03:09:11.571Z,17.20
2019-01-11T03:11:42.713Z,17.53
2019-01-11T03:14:14.079Z,17.03
2019-01-11T03:16:45.563Z,17.50
2019-01-11T03:19:16.653Z,17.43
2019-01-11T03:21:47.622Z,17.50
2019-01-11T03:24:18.996Z,17.23
2019-01-11T03:26:51.437Z,17.93
2019-01-11T03:29:22.870Z,16.80
2019-01-11T03:31:54.267Z,16.87
2019-01-11T03:34:25.678Z,17.40
2019-01-11T03:36:56.952Z,17.53
2019-01-11T03:39:28.160Z,17.53
2019-01-11T03:42:12.322Z,17.37
2019-01-11T03:44:43.561Z,17.10
2019-01-11T03:47:15.048Z,17.40
2019-01-11T03:49:46.302Z,17.30
2019-01-11T03:52:18.222Z,18.13
2019-01-11T03:54:49.092Z,18.03
2019-01-11T03:57:20.309Z,16.80
2019-01-11T03:59:51.899Z,17.00
2019-01-11T04:02:22.720Z,16.63
2019-01-11T04:04:53.624Z,17.03
2019-01-11T04:07:24.066Z,16.90
2019-01-11T04:09:54.936Z,16.53
2019-01-11T04:12:25.530Z,17.17
2019-01-11T04:14:56.453Z,16.93
2019-01-11T04:17:27.914Z,17.10
2019-01-11T04:20:02.180Z,17.10
2019-01-11T04:22:34.359Z,17.20
2019-01-11T04:25:18.297Z,17.47
2019-01-11T04:27:50.809Z,17.13
2019-01-11T04:30:22.818Z,17.40
2019-01-11T04:32:54.331Z,17.07
2019-01-11T04:35:25.683Z,17.13
2019-01-11T04:37:56.715Z,17.50
2019-01-11T04:40:34.177Z,17.67
2019-01-11T04:43:00.989Z,17.47
2019-01-11T04:45:32.128Z,17.13
2019-01-11T04:48:03.273Z,17.70
2019-01-11T04:50:34.092Z,17.57
2019-01-11T04:53:05.465Z,17.57
2019-01-11T04:55:36.199Z,17.63
2019-01-11T04:58:07.312Z,17.27
2019-01-11T05:00:37.861Z,17.63
2019-01-11T05:03:09.073Z,17.10
2019-01-11T05:05:39.617Z,17.43
2019-01-11T05:08:10.789Z,17.73
2019-01-11T05:10:41.277Z,17.93
2019-01-11T05:13:37.426Z,17.80
2019-01-11T05:16:08.044Z,17.93
2019-01-11T05:18:39.502Z,16.90
2019-01-11T05:21:11.343Z,17.97
2019-01-11T05:23:42.839Z,17.33
2019-01-11T05:26:13.840Z,17.93
2019-01-11T05:28:45.091Z,17.57
2019-01-11T05:31:16.406Z,17.77
2019-01-11T05:33:47.683Z,17.10
2019-01-11T05:36:21.887Z,17.83
2019-01-11T05:38:53.071Z,17.50
2019-01-11T05:41:24.083Z,17.90
2019-01-11T05:43:55.238Z,17.23
2019-01-11T05:46:25.843Z,17.53
2019-01-11T05:48:58.027Z,17.07
2019-01-11T05:51:28.771Z,17.80
2019-01-11T05:53:59.906Z,17.77
2019-01-11T05:56:31.471Z,17.87
2019-01-11T05:59:07.445Z,17.70
2019-01-11T06:01:37.878Z,16.70
2019-01-11T06:04:34.885Z,17.27
2019-01-11T06:07:17.299Z,17.07
2019-01-11T06:09:48.128Z,17.77
2019-01-11T06:12:18.579Z,16.73
2019-01-11T06:14:49.494Z,17.13
2019-01-11T06:17:20.381Z,17.10
2019-01-11T06:19:51.478Z,17.00
2019-01-11T06:22:22.624Z,17.23
2019-01-11T06:24:54.073Z,17.03
2019-01-11T06:27:24.685Z,16.97
2019-01-11T06:29:55.512Z,17.60
2019-01-11T06:32:25.933Z,16.50
2019-01-11T06:34:56.688Z,16.90
2019-01-11T06:37:27.443Z,18.17
2019-01-11T06:39:58.537Z,17.40
2019-01-11T06:42:29.023Z,17.10
2019-01-11T06:45:00.218Z,17.53
2019-01-11T06:47:30.587Z,17.07
2019-01-11T06:50:01.554Z,17.37
2019-01-11T06:52:31.973Z,17.87
2019-01-11T06:55:03.063Z,17.47
2019-01-11T06:57:33.946Z,16.83
2019-01-11T07:00:06.686Z,17.63
2019-01-11T07:02:37.215Z,17.27
2019-01-11T07:05:09.283Z,17.27
2019-01-11T07:07:39.745Z,17.73
2019-01-11T07:10:16.813Z,17.53
2019-01-11T07:12:47.250Z,17.57
2019-01-11T07:15:18.495Z,18.00
2019-01-11T07:17:50.547Z,16.70
2019-01-11T07:20:21.411Z,17.47
2019-01-11T07:22:52.836Z,17.23
2019-01-11T07:25:23.982Z,17.07
2019-01-11T07:28:01.069Z,17.57
2019-01-11T07:30:49.872Z,16.83
2019-01-11T07:33:22.411Z,16.80
2019-01-11T07:35:55.895Z,17.93
2019-01-11T07:38:26.954Z,16.97
2019-01-11T07:40:57.448Z,17.03
2019-01-11T07:43:28.406Z,17.30
2019-01-11T07:45:58.795Z,17.47
2019-01-11T07:48:30.178Z,17.03
2019-01-11T07:51:02.002Z,17.40
2019-01-11T07:53:32.744Z,17.63
2019-01-11T07:56:03.066Z,18.33
2019-01-11T07:58:35.057Z,17.97
2019-01-11T08:01:05.974Z,18.13
2019-01-11T08:03:36.944Z,18.93
2019-01-11T08:06:07.230Z,17.93
2019-01-11T08:08:37.949Z,18.27
2019-01-11T08:11:08.493Z,18.53
2019-01-11T08:13:39.466Z,18.53
2019-01-11T08:16:09.934Z,17.50
2019-01-11T08:18:41.758Z,18.93
2019-01-11T08:21:12.160Z,18.70
2019-01-11T08:23:43.114Z,18.50
2019-01-11T08:26:13.510Z,18.90
2019-01-11T08:28:44.786Z,18.23
2019-01-11T08:31:15.084Z,18.43
2019-01-11T08:33:46.465Z,18.65
2019-01-11T08:36:17.172Z,18.80
2019-01-11T08:38:47.826Z,18.13
2019-01-11T08:41:19.758Z,18.80
2019-01-11T08:43:50.397Z,21.15
2019-01-11T08:46:21.452Z,19.17
2019-01-11T08:48:52.397Z,18.90
2019-01-11T08:51:23.102Z,20.20
2019-01-11T08:53:53.788Z,18.53
2019-01-11T08:56:24.471Z,18.40
2019-01-11T08:58:55.139Z,18.70
2019-01-11T09:01:25.874Z,18.20
2019-01-11T09:03:56.434Z,19.30
2019-01-11T09:06:26.995Z,18.60
2019-01-11T09:08:57.367Z,18.10
2019-01-11T09:11:28.671Z,19.00
2019-01-11T09:13:59.334Z,18.63
2019-01-11T09:16:30.032Z,18.63
2019-01-11T09:19:05.539Z,18.27
2019-01-11T09:21:41.602Z,18.77
2019-01-11T09:24:10.359Z,19.87
2019-01-11T09:26:41.534Z,18.90
2019-01-11T09:29:12.529Z,18.57
2019-01-11T09:31:43.825Z,18.80
2019-01-11T09:34:14.938Z,19.60
2019-01-11T09:36:46.193Z,19.73
2019-01-11T09:39:17.636Z,19.20
2019-01-11T09:41:49.082Z,18.70
2019-01-11T09:44:20.257Z,19.07
2019-01-11T09:46:51.982Z,19.37
2019-01-11T09:49:23.124Z,19.03
2019-01-11T09:51:54.582Z,18.77
2019-01-11T09:54:25.846Z,20.03
2019-01-11T09:56:57.772Z,20.40
2019-01-11T09:59:34.935Z,19.40
2019-01-11T10:02:26.497Z,20.00
2019-01-11T10:04:57.381Z,21.15
2019-01-11T10:07:30.319Z,20.60
2019-01-11T10:10:00.773Z,19.80
2019-01-11T10:12:31.634Z,20.23
2019-01-11T10:15:02.061Z,20.33
2019-01-11T10:17:34.018Z,19.77
2019-01-11T10:20:07.158Z,20.53
2019-01-11T10:22:38.421Z,20.67
2019-01-11T10:25:10.887Z,20.63
2019-01-11T10:27:42.045Z,20.40
2019-01-11T10:30:15.817Z,21.17
2019-01-11T10:32:46.772Z,21.00
2019-01-11T10:35:17.607Z,21.67
2019-01-11T10:37:48.774Z,22.00
2019-01-11T10:40:20.817Z,21.47
2019-01-11T10:42:52.128Z,21.70
2019-01-11T10:45:23.807Z,22.03
2019-01-11T10:47:54.970Z,22.70
2019-01-11T10:50:26.060Z,21.90
2019-01-11T10:52:57.458Z,21.67
2019-01-11T10:55:28.198Z,20.97
2019-01-11T10:57:58.879Z,20.73
2019-01-11T11:00:29.890Z,21.27
2019-01-11T11:03:01.116Z,21.43
2019-01-11T11:05:31.578Z,22.00
2019-01-11T11:08:02.782Z,22.17
2019-01-11T11:10:33.223Z,23.32
2019-01-11T11:13:04.129Z,22.60
2019-01-11T11:15:34.583Z,22.33
2019-01-11T11:18:05.622Z,22.00
2019-01-11T11:20:36.654Z,22.17
2019-01-11T11:23:07.805Z,21.53
2019-01-11T11:25:38.964Z,21.60
2019-01-11T11:28:09.814Z,21.33
2019-01-11T11:30:41.429Z,22.80
2019-01-11T11:33:13.300Z,21.77
2019-01-11T11:35:44.436Z,21.83
2019-01-11T11:38:15.939Z,22.13
2019-01-11T11:40:47.170Z,21.97
2019-01-11T11:43:18.187Z,21.77
2019-01-11T11:45:49.016Z,22.73
2019-01-11T11:48:21.079Z,21.53
2019-01-11T11:50:52.258Z,22.17
2019-01-11T11:53:23.371Z,21.13
2019-01-11T11:55:54.819Z,21.80
2019-01-11T11:58:26.269Z,21.70
2019-01-11T12:00:58.031Z,22.00
2019-01-11T12:03:29.087Z,21.73
2019-01-11T12:06:00.360Z,21.77
2019-01-11T12:08:32.075Z,21.37
2019-01-11T12:11:03.553Z,21.77
2019-01-11T12:13:35.695Z,21.70
2019-01-11T12:16:07.540Z,21.03
2019-01-11T12:18:38.961Z,21.57
2019-01-11T12:21:10.444Z,21.60
2019-01-11T12:23:41.497Z,21.90
2019-01-11T12:26:12.655Z,22.47
2019-01-11T12:28:44.287Z,21.97
2019-01-11T12:31:15.497Z,22.43
2019-01-11T12:33:47.155Z,22.17
2019-01-11T12:36:17.826Z,22.07
2019-01-11T12:38:49.116Z,22.10
2019-01-11T12:41:20.009Z,22.50
2019-01-11T12:43:51.041Z,22.03
2019-01-11T12:46:22.811Z,22.20
2019-01-11T12:48:54.249Z,21.73
2019-01-11T12:51:25.011Z,22.27
2019-01-11T12:53:55.942Z,22.03
2019-01-11T12:56:26.381Z,21.73
2019-01-11T12:58:57.473Z,21.90
2019-01-11T13:01:28.977Z,21.70
2019-01-11T13:03:59.828Z,22.37
2019-01-11T13:06:30.275Z,21.23
2019-01-11T13:09:01.281Z,21.90
2019-01-11T13:11:33.273Z,23.10
2019-01-11T13:14:05.088Z,21.97
2019-01-11T13:16:35.517Z,23.20
2019-01-11T13:19:06.798Z,22.10
2019-01-11T13:21:38.039Z,22.63
2019-01-11T13:24:09.071Z,22.30
2019-01-11T13:26:40.186Z,23.80
2019-01-11T13:29:11.438Z,23.03
2019-01-11T13:31:42.280Z,22.53
2019-01-11T13:34:14.032Z,22.73
2019-01-11T13:36:45.206Z,22.73
2019-01-11T13:39:16.200Z,23.10
2019-01-11T13:41:47.454Z,22.87
2019-01-11T13:44:18.600Z,22.83
2019-01-11T13:46:49.777Z,22.73
2019-01-11T13:49:20.842Z,23.60
2019-01-11T13:51:51.861Z,22.77
2019-01-11T13:54:23.009Z,23.57
2019-01-11T13:56:53.785Z,24.10
2019-01-11T13:59:24.849Z,22.97
2019-01-11T14:01:56.716Z,23.10
2019-01-11T14:04:27.855Z,23.57
2019-01-11T14:06:58.929Z,22.80
2019-01-11T14:09:30.137Z,23.00
2019-01-11T14:12:01.009Z,23.37
2019-01-11T14:14:32.429Z,23.27
2019-01-11T14:17:04.186Z,22.80
2019-01-11T14:19:35.060Z,23.73
2019-01-11T14:22:06.778Z,24.67
2019-01-11T14:24:38.246Z,24.23
2019-01-11T14:27:09.275Z,23.93
2019-01-11T14:29:40.535Z,24.27
2019-01-11T14:32:11.779Z,23.47
2019-01-11T14:34:42.605Z,24.57
2019-01-11T14:37:13.844Z,24.20
2019-01-11T14:39:45.197Z,24.90
2019-01-11T14:42:16.381Z,24.63
2019-01-11T14:44:47.790Z,24.37
2019-01-11T14:47:19.946Z,24.30
2019-01-11T14:49:50.997Z,24.63
2019-01-11T14:52:22.175Z,23.63
2019-01-11T14:54:53.369Z,25.07
2019-01-11T14:57:24.470Z,23.70
2019-01-11T14:59:55.402Z,27.15
2019-01-11T15:02:26.862Z,24.53
2019-01-11T15:04:57.949Z,25.13
2019-01-11T15:07:29.617Z,24.83
2019-01-11T15:10:00.576Z,24.03
2019-01-11T15:12:31.906Z,24.90
2019-01-11T15:15:02.954Z,23.93
2019-01-11T15:17:34.113Z,24.57
2019-01-11T15:20:06.542Z,26.20
2019-01-11T15:22:37.469Z,30.43
2019-01-11T15:25:09.428Z,33.13
2019-01-11T15:27:40.318Z,32.53
2019-01-11T15:30:16.924Z,32.30
2019-01-11T15:32:47.869Z,30.60
2019-01-11T15:35:19.958Z,31.43
2019-01-11T15:37:51.057Z,32.50
2019-01-11T15:40:40.597Z,31.73
2019-01-11T15:43:12.206Z,31.63
2019-01-11T15:45:43.330Z,29.80
2019-01-11T15:48:19.666Z,30.33
2019-01-11T15:50:55.677Z,29.73
2019-01-11T15:53:29.662Z,28.63
2019-01-11T15:56:02.313Z,28.07
2019-01-11T15:58:33.951Z,27.93
2019-01-11T16:01:05.497Z,27.33
2019-01-11T16:03:36.598Z,26.17
2019-01-11T16:06:26.129Z,26.90
2019-01-11T16:10:01.719Z,25.80
2019-01-11T16:13:02.082Z,25.00
2019-01-11T16:16:00.200Z,25.67
2019-01-11T16:18:32.172Z,25.57
2019-01-11T16:21:03.375Z,25.53
2019-01-11T16:23:33.995Z,24.40
2019-01-11T16:26:05.698Z,24.97
2019-01-11T16:28:36.349Z,25.88
2019-01-11T16:31:07.328Z,24.33
2019-01-11T16:33:38.294Z,23.73
2019-01-11T16:36:09.262Z,23.40
2019-01-11T16:38:40.579Z,25.55
2019-01-11T16:41:11.842Z,23.90
2019-01-11T16:43:42.447Z,25.43
2019-01-11T16:46:13.406Z,23.27
2019-01-11T16:48:44.947Z,23.03
2019-01-11T16:51:16.131Z,23.10
2019-01-11T16:53:47.148Z,22.07
2019-01-11T16:56:18.188Z,23.20
2019-01-11T16:58:49.894Z,22.20
2019-01-11T17:01:21.039Z,23.60
2019-01-11T17:03:51.898Z,22.80
2019-01-11T17:06:22.695Z,23.00
2019-01-11T17:08:53.742Z,22.70
2019-01-11T17:11:25.090Z,22.60
2019-01-11T17:13:58.934Z,21.70
2019-01-11T17:16:29.943Z,21.53
2019-01-11T17:19:02.234Z,21.87
2019-01-11T17:21:33.768Z,22.33
2019-01-11T17:24:05.241Z,21.27
2019-01-11T17:26:36.459Z,21.23
2019-01-11T17:29:07.319Z,21.20
2019-01-11T17:31:38.458Z,21.10
2019-01-11T17:34:09.630Z,21.60
2019-01-11T17:36:40.467Z,21.67
2019-01-11T17:39:11.794Z,20.90
2019-01-11T17:41:45.398Z,20.07
2019-01-11T17:44:24.356Z,19.57
2019-01-11T17:46:55.477Z,20.03
2019-01-11T17:49:26.155Z,19.73
2019-01-11T17:51:56.575Z,19.53
2019-01-11T17:54:27.251Z,20.00
2019-01-11T17:56:57.868Z,19.57
2019-01-11T17:59:28.563Z,20.23
2019-01-11T18:01:59.548Z,19.03
2019-01-11T18:04:30.557Z,19.93
2019-01-11T18:07:01.213Z,21.10
2019-01-11T18:09:31.943Z,19.60
2019-01-11T18:12:02.785Z,19.93
2019-01-11T18:14:35.010Z,20.50
2019-01-11T18:17:06.391Z,19.67
2019-01-11T18:19:36.997Z,20.00
2019-01-11T18:22:08.133Z,19.83
2019-01-11T18:24:38.877Z,19.83
2019-01-11T18:27:09.953Z,19.57
2019-01-11T18:29:42.418Z,19.97
2019-01-11T18:32:13.547Z,19.40
2019-01-11T18:34:44.753Z,19.60
2019-01-11T18:37:16.467Z,19.30
2019-01-11T18:39:47.660Z,19.57
2019-01-11T18:42:18.784Z,20.07
2019-01-11T18:44:50.503Z,19.43
2019-01-11T18:47:21.675Z,20.10
2019-01-11T18:49:52.812Z,19.40
2019-01-11T18:52:24.105Z,19.33
2019-01-11T18:54:55.778Z,18.87
2019-01-11T18:57:28.171Z,19.23
2019-01-11T18:59:59.625Z,19.50
2019-01-11T19:02:30.679Z,18.73
2019-01-11T19:05:01.813Z,18.87
2019-01-11T19:07:33.311Z,18.73
2019-01-11T19:10:05.103Z,18.57
2019-01-11T19:12:36.426Z,18.93
2019-01-11T19:15:09.799Z,18.53
2019-01-11T19:17:40.956Z,18.13
2019-01-11T19:20:24.474Z,18.30
2019-01-11T19:22:55.803Z,18.00
2019-01-11T19:25:27.238Z,19.00
2019-01-11T19:27:58.443Z,17.53
2019-01-11T19:30:30.474Z,17.87
2019-01-11T19:33:01.793Z,18.10
2019-01-11T19:35:33.048Z,17.93
2019-01-11T19:38:04.738Z,18.20
2019-01-11T19:40:36.365Z,17.77
2019-01-11T19:43:07.917Z,17.90
2019-01-11T19:45:39.910Z,17.70
2019-01-11T19:48:10.971Z,16.80
2019-01-11T19:50:43.172Z,16.50
2019-01-11T19:53:14.171Z,17.47
2019-01-11T19:55:45.482Z,16.63
2019-01-11T19:58:17.559Z,17.00
2019-01-11T20:00:48.500Z,16.10
2019-01-11T20:03:19.460Z,16.17
2019-01-11T20:05:51.956Z,16.27
2019-01-11T20:08:24.538Z,16.40
2019-01-11T20:10:54.967Z,15.27
2019-01-11T20:13:26.139Z,15.87
2019-01-11T20:15:58.597Z,16.07
2019-01-11T20:18:32.480Z,15.23
2019-01-11T20:21:03.415Z,15.13
2019-01-11T20:23:36.997Z,14.40
2019-01-11T20:26:08.417Z,15.23
2019-01-11T20:28:40.503Z,14.53
2019-01-11T20:31:12.305Z,14.23
2019-01-11T20:33:45.328Z,14.43
2019-01-11T20:36:16.991Z,13.90
2019-01-11T20:38:48.438Z,14.10
2019-01-11T20:41:20.135Z,13.00
2019-01-11T20:43:51.791Z,13.70
2019-01-11T20:46:23.593Z,13.43
2019-01-11T20:48:55.553Z,13.30
2019-01-11T20:51:27.304Z,13.67
2019-01-11T20:53:58.819Z,13.50
2019-01-11T20:56:31.666Z,13.03
2019-01-11T20:59:02.425Z,12.70
2019-01-11T21:01:33.412Z,12.57
2019-01-11T21:04:05.249Z,12.57
2019-01-11T21:06:36.701Z,12.70
2019-01-11T21:09:09.091Z,12.27
2019-01-11T21:11:40.575Z,12.07
2019-01-11T21:14:14.357Z,12.33
2019-01-11T21:16:45.972Z,12.23
2019-01-11T21:19:18.378Z,12.50
2019-01-11T21:21:49.278Z,11.70
2019-01-11T21:24:20.762Z,11.60
2019-01-11T21:26:52.006Z,11.47
2019-01-11T21:29:23.311Z,11.13
2019-01-11T21:31:54.246Z,11.47
2019-01-11T21:34:26.491Z,11.43
2019-01-11T21:36:57.112Z,11.00
2019-01-11T21:39:29.123Z,11.20
2019-01-11T21:41:59.726Z,11.60
2019-01-11T21:44:31.349Z,10.80
2019-01-11T21:47:04.458Z,10.53
2019-01-11T21:49:35.327Z,10.90
2019-01-11T21:52:05.824Z,11.27
2019-01-11T21:54:36.751Z,10.90
2019-01-11T21:57:07.179Z,10.23
2019-01-11T21:59:38.334Z,9.93
2019-01-11T22:02:08.845Z,10.73
2019-01-11T22:04:39.738Z,10.60
2019-01-11T22:07:10.263Z,10.73
2019-01-11T22:09:41.705Z,10.40
2019-01-11T22:12:12.150Z,9.63
2019-01-11T22:14:44.386Z,10.00
2019-01-11T22:17:15.182Z,10.23
2019-01-11T22:19:45.947Z,9.60
2019-01-11T22:22:16.488Z,9.60
2019-01-11T22:24:47.766Z,9.87
2019-01-11T22:27:19.171Z,9.47
2019-01-11T22:29:50.072Z,10.13
2019-01-11T22:32:23.305Z,9.07
2019-01-11T22:34:54.533Z,9.43
2019-01-11T22:37:26.077Z,9.30
2019-01-11T22:39:57.422Z,9.10
2019-01-11T22:42:28.521Z,9.10
2019-01-11T22:45:00.318Z,9.17
2019-01-11T22:47:31.612Z,9.20
2019-01-11T22:50:02.949Z,8.97
2019-01-11T22:52:34.131Z,8.87
2019-01-11T22:55:05.947Z,8.20
2019-01-11T22:57:37.036Z,8.97
2019-01-11T23:00:35.289Z,8.80
2019-01-11T23:03:10.586Z,8.27
2019-01-11T23:05:41.754Z,8.10
2019-01-11T23:08:16.848Z,8.13
2019-01-11T23:11:24.907Z,8.00
2019-01-11T23:13:56.672Z,7.57
2019-01-11T23:16:44.995Z,8.20
2019-01-11T23:19:15.862Z,7.97
2019-01-11T23:21:46.940Z,8.00
2019-01-11T23:24:17.981Z,8.07
2019-01-11T23:26:49.383Z,7.70
2019-01-11T23:29:22.369Z,7.60
2019-01-11T23:31:55.000Z,7.53
2019-01-11T23:34:26.294Z,7.70
2019-01-11T23:36:57.841Z,7.30
2019-01-11T23:39:28.992Z,7.33
2019-01-11T23:42:00.130Z,7.53
2019-01-11T23:44:30.930Z,7.20
2019-01-11T23:47:02.412Z,7.17
2019-01-11T23:49:33.590Z,7.23
2019-01-11T23:52:04.738Z,7.40
2019-01-11T23:54:35.547Z,7.03
2019-01-11T23:57:06.721Z,6.67
2019-01-11T23:59:37.549Z,6.93
